Time;durP1;ratioP1;P1;durP2;ratioP2;P2;SDS_P1;SDS_P2;PMS_P1;PMS_P2;Temp;Humidity;BMP_temperature;BMP_pressure;BME280_temperature;BME280_humidity;BME280_pressure;Samples;Min_cycle;Max_cycle;Signal;HPM_P1;HPM_P2
2022/05/03 00:01:58;;;;;;;0.80;0.67;;;7.30;1.40;;;8.72;100.00;95140.86;646859;216;31594;-73
2022/05/03 00:05:02;;;;;;;1.62;0.70;;;7.60;1.40;;;8.91;100.00;95131.27;647407;212;31487;-74
2022/05/03 00:10:29;;;;;;;2.40;1.00;;;7.90;1.40;;;9.13;100.00;95129.06;619033;222;31837;-74
2022/05/03 00:13:11;;;;;;;0.60;0.50;;;8.10;1.40;;;9.21;100.00;95129.44;647100;212;31578;-74
2022/05/03 00:15:53;;;;;;;0.77;0.77;;;8.20;1.40;;;9.30;100.00;95127.52;647184;216;31493;-74
2022/05/03 00:18:34;;;;;;;1.10;0.80;;;8.30;1.40;;;9.31;100.00;95127.74;647812;216;31541;-74
2022/05/03 00:21:16;;;;;;;1.90;1.10;;;8.20;1.40;;;9.20;100.00;95126.91;647378;216;31558;-76
2022/05/03 00:23:57;;;;;;;0.90;0.80;;;8.20;1.40;;;9.12;100.00;95126.00;645514;212;31808;-75
2022/05/03 00:26:39;;;;;;;0.70;0.60;;;8.10;1.40;;;9.10;100.00;95130.94;620209;226;31831;-74
2022/05/03 00:29:21;;;;;;;1.25;0.93;;;8.00;1.40;;;9.13;100.00;95128.32;648978;213;31486;-75
2022/05/03 00:32:09;;;;;;;0.70;0.70;;;7.90;1.40;;;9.09;100.00;95133.08;646406;216;31633;-73
2022/05/03 00:35:51;;;;;;;1.30;0.90;;;8.00;1.40;;;9.01;100.00;95125.83;646920;215;31604;-76
2022/05/03 00:38:34;;;;;;;1.90;1.20;;;7.90;1.40;;;9.02;100.00;95129.38;647340;216;42127;-74
2022/05/03 00:41:33;;;;;;;1.60;0.90;;;7.70;1.40;;;8.98;100.00;95128.06;647789;212;31538;-76
2022/05/03 00:46:52;;;;;;;1.10;1.00;;;7.50;1.40;;;8.94;100.00;95126.73;646443;216;31638;-73
2022/05/03 00:52:29;;;;;;;1.27;1.10;;;7.20;1.40;;;8.52;100.00;95118.96;647517;212;31534;-74
2022/05/03 00:55:20;;;;;;;0.80;0.60;;;7.10;1.40;;;8.44;100.00;95122.83;647137;212;31554;-73
2022/05/03 00:58:09;;;;;;;1.47;1.10;;;7.00;1.40;;;8.48;100.00;95124.80;632039;221;31765;-74
2022/05/03 01:03:48;;;;;;;0.98;0.80;;;7.10;1.40;;;8.38;100.00;95130.08;646268;216;31791;-74
2022/05/03 01:06:37;;;;;;;1.20;1.10;;;6.90;1.40;;;8.34;100.00;95131.31;649249;216;31492;-75
2022/05/03 01:09:18;;;;;;;0.80;0.60;;;6.90;1.40;;;8.26;100.00;95129.38;647215;216;31558;-74
2022/05/03 01:12:20;;;;;;;1.10;0.50;;;6.90;1.40;;;8.03;100.00;95129.65;646607;212;31634;-74
2022/05/03 01:15:10;;;;;;;1.07;0.60;;;6.60;1.40;;;7.88;100.00;95129.49;647074;216;31995;-74
2022/05/03 01:18:04;;;;;;;1.77;0.80;;;6.50;1.40;;;7.78;100.00;95128.72;646580;212;31711;-76
2022/05/03 01:20:59;;;;;;;1.08;1.08;;;6.50;1.40;;;7.78;100.00;95129.90;647822;212;32196;-74
2022/05/03 01:24:08;;;;;;;0.55;0.40;;;6.50;1.40;;;7.73;100.00;95126.90;646940;216;32104;-76
2022/05/03 01:27:16;;;;;;;1.40;1.10;;;6.40;1.40;;;7.69;100.00;95127.55;647423;212;31714;-74
2022/05/03 01:29:58;;;;;;;1.40;0.90;;;6.40;1.40;;;7.58;100.00;95119.83;648375;216;31557;-74
2022/05/03 01:32:39;;;;;;;0.80;0.80;;;6.30;1.40;;;7.55;100.00;95120.69;647147;212;31514;-75
2022/05/03 01:35:51;;;;;;;1.90;1.10;;;6.30;1.40;;;7.51;100.00;95116.76;648309;216;31554;-74
2022/05/03 01:38:38;;;;;;;2.20;1.00;;;6.30;1.40;;;7.47;100.00;95118.81;648436;216;31502;-74
2022/05/03 01:41:35;;;;;;;0.80;0.80;;;6.20;1.40;;;7.41;100.00;95123.30;647878;216;31638;-76
2022/05/03 01:44:28;;;;;;;0.90;0.67;;;6.00;1.40;;;7.30;100.00;95126.05;647731;216;31519;-73
2022/05/03 01:47:14;;;;;;;0.85;0.80;;;6.00;1.40;;;7.20;100.00;95123.25;619867;222;32027;-75
2022/05/03 01:52:54;;;;;;;0.95;0.75;;;5.90;1.40;;;7.27;100.00;95110.03;646559;216;32025;-75
2022/05/03 01:56:28;;;;;;;1.80;0.90;;;6.10;1.40;;;7.36;100.00;95107.08;647911;212;31535;-75
2022/05/03 02:01:54;;;;;;;1.00;0.60;;;6.00;1.40;;;7.10;100.00;95105.83;646822;216;31591;-74
2022/05/03 02:05:03;;;;;;;0.63;0.50;;;5.80;1.40;;;6.96;100.00;95105.66;647502;216;31504;-75
2022/05/03 02:08:02;;;;;;;0.73;0.50;;;5.40;1.40;;;6.83;100.00;95107.58;641739;214;31619;-74
2022/05/03 02:10:50;;;;;;;0.80;0.80;;;5.30;1.40;;;6.64;100.00;95107.91;647820;216;31570;-74
2022/05/03 02:17:00;;;;;;;1.80;0.77;;;5.40;1.40;;;6.56;100.00;95100.08;646901;212;32086;-75
2022/05/03 02:22:24;;;;;;;0.70;0.70;;;5.20;1.40;;;6.59;100.00;95106.08;647561;216;31474;-75
2022/05/03 02:25:41;;;;;;;0.88;0.88;;;5.40;1.40;;;6.63;100.00;95102.09;647901;216;31526;-75
2022/05/03 02:28:24;;;;;;;1.12;1.00;;;5.50;1.40;;;6.61;100.00;95100.45;646733;212;31542;-75
2022/05/03 02:31:06;;;;;;;0.90;0.90;;;5.40;1.40;;;6.70;100.00;95105.86;647202;216;31495;-76
2022/05/03 02:35:51;;;;;;;0.80;0.50;;;5.60;1.40;;;6.70;100.00;95106.08;647585;216;32117;-74
2022/05/03 02:38:37;;;;;;;1.10;0.90;;;5.40;1.40;;;6.46;100.00;95107.82;648294;212;31687;-73
2022/05/03 02:41:20;;;;;;;2.20;0.80;;;5.10;1.40;;;6.32;100.00;95112.28;647566;216;31732;-74
2022/05/03 02:44:01;;;;;;;0.90;0.80;;;5.00;1.40;;;6.16;100.00;95108.39;647120;216;31864;-74
2022/05/03 02:47:03;;;;;;;2.40;0.60;;;4.90;1.40;;;6.06;100.00;95103.78;646986;216;31521;-74
2022/05/03 02:49:55;;;;;;;0.60;0.43;;;4.80;1.40;;;6.04;100.00;95101.91;646703;212;31508;-75
2022/05/03 02:52:52;;;;;;;1.15;0.82;;;4.80;1.40;;;6.03;100.00;95105.42;647213;212;42137;-74
2022/05/03 02:55:50;;;;;;;1.00;0.30;;;4.80;1.40;;;6.08;100.00;95104.03;647978;212;31599;-74
2022/05/03 02:58:57;;;;;;;0.70;0.70;;;4.90;1.40;;;6.08;100.00;95104.67;647407;216;31592;-74
2022/05/03 03:01:48;;;;;;;12.30;0.93;;;4.90;1.40;;;6.16;100.00;95099.13;647178;216;42098;-75
2022/05/03 03:05:06;;;;;;;0.60;0.50;;;5.00;1.40;;;6.30;100.00;95093.60;647021;216;42108;-74
2022/05/03 03:07:55;;;;;;;1.30;0.60;;;5.40;1.40;;;6.47;100.00;95089.34;641072;216;31676;-74
2022/05/03 03:11:03;;;;;;;0.80;0.77;;;5.40;1.40;;;6.44;100.00;95087.11;647936;216;31510;-76
2022/05/03 03:13:58;;;;;;;0.77;0.77;;;5.40;1.40;;;6.42;100.00;95083.09;646798;212;32115;-75
2022/05/03 03:16:41;;;;;;;0.73;0.73;;;5.40;1.40;;;6.33;100.00;95089.66;648094;216;42988;-76
2022/05/03 03:22:03;;;;;;;1.00;0.60;;;5.10;1.40;;;6.25;100.00;95091.77;647653;216;42292;-76
2022/05/03 03:24:45;;;;;;;0.50;0.40;;;5.00;1.40;;;6.20;100.00;95098.66;647275;216;31600;-74
2022/05/03 03:27:26;;;;;;;1.00;0.70;;;4.90;1.40;;;6.14;100.00;95102.48;648632;212;31519;-74
2022/05/03 03:30:09;;;;;;;1.33;0.60;;;4.90;1.40;;;6.14;100.00;95101.03;646445;216;32062;-74
2022/05/03 03:32:57;;;;;;;0.70;0.70;;;4.90;1.40;;;6.08;100.00;95107.90;619700;226;31914;-75
2022/05/03 03:35:51;;;;;;;1.00;0.50;;;4.90;1.40;;;6.02;100.00;95103.66;647061;212;31529;-74
2022/05/03 03:38:37;;;;;;;0.40;0.40;;;4.80;1.40;;;5.98;100.00;95104.89;648278;212;41998;-75
2022/05/03 03:41:18;;;;;;;1.50;1.02;;;4.80;1.40;;;6.00;100.00;95103.89;647092;216;31616;-75
2022/05/03 03:44:03;;;;;;;1.40;0.60;;;4.80;1.40;;;6.08;100.00;95112.37;647193;216;42741;-75
2022/05/03 03:46:42;;;;;;;0.68;0.68;;;5.00;1.40;;;6.17;100.00;95106.50;646500;216;31962;-76
2022/05/03 03:49:24;;;;;;;0.73;0.73;;;5.10;1.40;;;6.19;100.00;95108.36;648128;216;31580;-74
2022/05/03 03:52:07;;;;;;;1.60;1.20;;;5.00;1.40;;;5.80;100.00;95112.85;647320;216;42396;-74
2022/05/03 03:54:50;;;;;;;0.50;0.50;;;4.40;1.40;;;5.30;100.00;95117.20;647419;212;31532;-74
2022/05/03 03:57:32;;;;;;;1.85;0.90;;;4.20;1.40;;;5.31;100.00;95118.91;648398;212;42104;-74
2022/05/03 04:00:14;;;;;;;1.20;0.70;;;4.20;1.40;;;5.46;100.00;95118.72;647550;216;31754;-75
2022/05/03 04:02:56;;;;;;;0.80;0.40;;;4.40;1.40;;;5.66;100.00;95113.16;647046;216;31539;-74
2022/05/03 04:05:37;;;;;;;0.60;0.50;;;4.60;1.40;;;5.71;100.00;95115.48;642472;215;31654;-75
2022/05/03 04:08:20;;;;;;;0.70;0.70;;;4.70;1.40;;;5.77;100.00;95116.53;638405;212;42304;-74
2022/05/03 04:11:01;;;;;;;0.70;0.60;;;4.60;1.40;;;5.73;100.00;95113.42;619944;225;31870;-74
2022/05/03 04:13:44;;;;;;;0.90;0.60;;;4.50;1.40;;;5.87;100.00;95122.36;646816;212;31561;-75
2022/05/03 04:16:26;;;;;;;0.70;0.70;;;4.70;1.40;;;5.93;100.00;95119.38;647117;212;31881;-75
2022/05/03 04:19:08;;;;;;;0.70;0.70;;;4.70;1.40;;;6.02;100.00;95124.16;620194;222;31923;-75
2022/05/03 04:21:49;;;;;;;0.68;0.68;;;4.70;1.40;;;5.99;100.00;95117.95;646893;216;31860;-75
2022/05/03 04:24:31;;;;;;;1.70;1.30;;;4.80;1.40;;;5.99;100.00;95120.32;619707;226;31892;-74
2022/05/03 04:27:13;;;;;;;1.33;1.23;;;4.80;1.40;;;6.08;100.00;95124.38;647872;216;42510;-75
2022/05/03 04:29:55;;;;;;;0.80;0.80;;;5.00;1.40;;;6.15;100.00;95125.63;648443;216;42141;-73
2022/05/03 04:32:37;;;;;;;0.60;0.50;;;5.10;1.40;;;6.25;100.00;95128.75;646867;216;31730;-74
2022/05/03 04:35:52;;;;;;;1.45;0.80;;;5.30;1.40;;;6.36;100.00;95129.36;619775;222;31906;-76
2022/05/03 04:38:36;;;;;;;1.70;1.60;;;5.40;1.40;;;6.41;100.00;95127.64;646137;216;31511;-75
2022/05/03 04:41:21;;;;;;;1.10;0.60;;;5.40;1.40;;;6.56;100.00;95125.94;619630;222;42462;-75
2022/05/03 04:44:02;;;;;;;0.70;0.60;;;5.60;1.40;;;6.76;100.00;95129.01;618779;222;31906;-74
2022/05/03 04:46:44;;;;;;;1.10;0.75;;;5.70;1.40;;;6.91;100.00;95131.91;647267;212;42106;-74
2022/05/03 04:49:25;;;;;;;0.80;0.80;;;5.70;1.40;;;7.02;100.00;95131.98;648196;216;31560;-74
2022/05/03 04:52:08;;;;;;;1.70;0.50;;;5.80;1.40;;;7.18;100.00;95135.91;647777;216;31684;-74
2022/05/03 04:54:50;;;;;;;0.70;0.40;;;5.80;1.40;;;7.15;100.00;95134.86;646941;216;31560;-74
2022/05/03 04:57:31;;;;;;;0.82;0.75;;;5.90;1.40;;;7.06;100.00;95135.81;647601;212;31580;-75
2022/05/03 05:00:14;;;;;;;1.10;0.60;;;5.80;1.40;;;7.11;100.00;95139.66;647176;213;32428;-74
2022/05/03 05:02:56;;;;;;;0.85;0.62;;;5.80;1.40;;;7.11;100.00;95139.81;647416;212;31592;-75
2022/05/03 05:05:38;;;;;;;1.50;1.07;;;5.90;1.40;;;7.17;100.00;95138.61;647302;212;31516;-74
2022/05/03 05:08:20;;;;;;;1.20;0.60;;;5.90;1.40;;;7.19;100.00;95135.56;638288;212;31647;-75
2022/05/03 05:11:02;;;;;;;0.70;0.60;;;6.00;1.40;;;7.26;100.00;95137.38;619991;222;31838;-74
2022/05/03 05:13:47;;;;;;;3.42;1.05;;;6.10;1.40;;;7.35;100.00;95138.12;647438;212;42111;-76
2022/05/03 05:16:29;;;;;;;1.20;0.95;;;6.20;1.40;;;7.47;100.00;95139.05;620441;222;42583;-77
2022/05/03 05:19:17;;;;;;;0.57;0.57;;;6.40;1.40;;;7.61;100.00;95138.13;645195;216;31688;-74
2022/05/03 05:21:59;;;;;;;0.82;0.70;;;6.50;1.40;;;7.85;100.00;95142.33;618373;226;32114;-74
2022/05/03 05:24:40;;;;;;;0.80;0.60;;;6.60;1.40;;;7.72;100.00;95141.22;646586;212;31590;-73
2022/05/03 05:27:25;;;;;;;1.37;0.80;;;6.60;1.40;;;7.77;100.00;95143.35;646029;212;32308;-74
2022/05/03 05:32:41;;;;;;;0.70;0.50;;;6.70;1.40;;;7.99;100.00;95145.07;647189;216;31528;-73
2022/05/03 05:35:54;;;;;;;0.80;0.75;;;6.80;1.40;;;8.08;100.00;95146.19;646412;216;31688;-73
2022/05/03 05:38:35;;;;;;;0.97;0.77;;;6.80;1.40;;;8.02;100.00;95145.53;645764;216;31517;-73
2022/05/03 05:41:17;;;;;;;0.60;0.40;;;6.80;1.40;;;7.96;100.00;95149.38;645549;216;31549;-75
2022/05/03 05:43:59;;;;;;;1.73;0.57;;;6.80;1.40;;;8.11;100.00;95149.05;646578;216;31620;-74
2022/05/03 05:46:40;;;;;;;1.20;0.70;;;6.90;1.40;;;8.11;100.00;95149.91;645699;212;31786;-74
2022/05/03 05:49:22;;;;;;;0.80;0.40;;;7.00;1.40;;;8.11;100.00;95147.50;646026;216;31776;-74
2022/05/03 05:54:54;;;;;;;1.23;1.13;;;7.10;1.40;;;8.24;100.00;95155.66;646070;216;31479;-74
2022/05/03 05:57:36;;;;;;;1.17;0.90;;;7.10;1.40;;;8.33;100.00;95161.98;618714;222;33111;-74
2022/05/03 06:00:20;;;;;;;1.60;0.90;;;7.10;1.40;;;8.34;100.00;95162.80;647124;216;31497;-74
2022/05/03 06:03:02;;;;;;;0.60;0.50;;;7.10;1.40;;;8.39;100.00;95165.55;646953;212;31545;-73
2022/05/03 06:05:53;;;;;;;1.42;1.17;;;7.20;1.40;;;8.47;100.00;95167.19;647052;212;41835;-77
2022/05/03 06:08:37;;;;;;;1.40;0.70;;;7.30;1.40;;;8.36;100.00;95162.66;646217;212;31512;-74
2022/05/03 06:11:18;;;;;;;0.80;0.50;;;7.30;1.40;;;8.33;100.00;95167.06;646515;216;31512;-74
2022/05/03 06:16:34;;;;;;;1.00;0.87;;;7.30;1.40;;;8.52;100.00;95168.50;646836;216;31530;-76
2022/05/03 06:19:16;;;;;;;1.50;1.10;;;7.50;1.40;;;8.74;100.00;95170.73;646574;216;31466;-75
2022/05/03 06:22:04;;;;;;;1.80;1.20;;;7.70;1.40;;;8.90;100.00;95175.63;647356;212;31531;-77
2022/05/03 06:24:47;;;;;;;1.50;1.40;;;7.90;1.40;;;8.92;100.00;95178.55;618952;222;31907;-77
2022/05/03 06:27:33;;;;;;;1.23;0.70;;;7.90;1.40;;;9.25;100.00;95176.24;645477;216;31964;-73
2022/05/03 06:30:15;;;;;;;1.67;1.00;;;8.10;1.40;;;9.38;100.00;95177.45;646618;216;31503;-74
2022/05/03 06:32:57;;;;;;;1.50;1.40;;;8.10;1.40;;;9.44;100.00;95178.27;647460;216;31831;-73
2022/05/03 06:35:51;;;;;;;2.53;1.12;;;8.20;1.40;;;9.70;100.00;95179.39;646026;212;31626;-73
2022/05/03 06:41:06;;;;;;;1.50;0.95;;;8.40;1.40;;;9.66;100.00;95186.55;646514;212;31545;-73
2022/05/03 06:46:22;;;;;;;1.87;1.27;;;8.60;1.40;;;10.02;100.00;95191.25;646485;216;31569;-74
2022/05/03 06:49:03;;;;;;;1.20;1.00;;;8.90;1.40;;;10.16;100.00;95196.41;646540;216;31570;-73
2022/05/03 06:51:45;;;;;;;1.53;0.70;;;8.90;1.40;;;10.22;100.00;95196.35;618628;226;32003;-73
2022/05/03 06:54:27;;;;;;;0.90;0.90;;;9.00;1.40;;;10.62;100.00;95196.94;645096;212;31497;-73
2022/05/03 06:57:08;;;;;;;1.55;1.10;;;9.30;1.40;;;10.87;100.00;95202.25;618679;225;31841;-75
2022/05/03 06:59:50;;;;;;;5.37;1.20;;;9.50;1.40;;;11.11;100.00;95197.19;646747;216;31495;-74
2022/05/03 07:02:32;;;;;;;1.80;0.90;;;9.80;1.40;;;11.46;100.00;95197.47;646331;212;42132;-74
2022/05/03 07:05:14;;;;;;;1.10;0.80;;;10.00;1.40;;;11.73;100.00;95195.22;645877;216;42129;-74
2022/05/03 07:07:56;;;;;;;0.83;0.77;;;10.20;1.40;;;11.95;100.00;95196.31;643998;216;42291;-74
2022/05/03 07:10:41;;;;;;;2.50;1.50;;;10.40;1.40;;;12.25;100.00;95193.11;646326;212;33457;-73
2022/05/03 07:13:24;;;;;;;1.10;0.70;;;10.60;1.40;;;12.57;100.00;95190.55;646902;216;31700;-74
2022/05/03 07:16:06;;;;;;;0.70;0.70;;;10.90;1.40;;;12.57;100.00;95193.00;647011;216;31477;-74
2022/05/03 07:24:25;;;;;;;1.10;0.90;;;11.50;1.40;;;13.48;100.00;95193.34;646177;212;31503;-75
2022/05/03 07:27:07;;;;;;;0.80;0.60;;;11.70;1.40;;;13.75;100.00;95195.42;645683;212;31513;-75
2022/05/03 07:29:48;;;;;;;1.33;0.98;;;11.80;1.40;;;13.92;100.00;95196.12;647320;216;33166;-74
2022/05/03 07:32:30;;;;;;;1.25;1.10;;;12.20;1.40;;;13.85;100.00;95195.48;647542;216;32079;-75
2022/05/03 07:35:54;;;;;;;0.80;0.80;;;12.40;1.40;;;14.45;100.00;95196.38;646988;216;31532;-74
2022/05/03 07:38:36;;;;;;;0.65;0.65;;;12.70;1.40;;;14.56;100.00;95200.84;645346;212;42695;-74
2022/05/03 07:41:17;;;;;;;1.00;0.82;;;12.70;1.40;;;14.21;100.00;95195.77;646817;212;31803;-74
2022/05/03 07:44:01;;;;;;;0.77;0.77;;;12.80;1.40;;;14.67;100.00;95201.55;642968;218;31503;-79
2022/05/03 07:46:49;;;;;;;1.70;1.40;;;13.10;1.40;;;14.91;100.00;95199.21;647309;212;32102;-75
2022/05/03 07:49:31;;;;;;;1.75;1.02;;;13.30;1.40;;;15.36;100.00;95196.69;648681;216;31789;-74
2022/05/03 07:52:12;;;;;;;1.80;1.37;;;13.70;1.40;;;15.56;100.00;95199.64;646962;216;31570;-74
2022/05/03 07:54:55;;;;;;;1.05;0.90;;;14.00;1.40;;;15.96;100.00;95202.07;645128;212;31482;-74
2022/05/03 07:57:36;;;;;;;2.75;1.20;;;14.00;1.40;;;15.70;100.00;95203.00;645439;216;31525;-74
2022/05/03 08:00:18;;;;;;;1.10;1.00;;;14.10;1.40;;;15.97;100.00;95200.11;647128;216;31548;-74
2022/05/03 08:02:59;;;;;;;1.08;0.77;;;14.10;1.40;;;16.15;100.00;95199.72;647810;216;31498;-74
2022/05/03 08:05:41;;;;;;;1.10;0.98;;;14.40;1.40;;;16.39;100.00;95205.13;645923;212;31540;-74
2022/05/03 08:08:23;;;;;;;1.40;0.95;;;14.80;1.40;;;16.58;100.00;95205.29;642049;216;31893;-74
2022/05/03 08:11:05;;;;;;;1.40;1.17;;;15.20;1.40;;;16.97;100.00;95207.08;645689;216;31522;-74
2022/05/03 08:13:48;;;;;;;1.42;1.10;;;15.40;1.40;;;16.96;100.00;95206.71;618558;226;32040;-74
2022/05/03 08:16:30;;;;;;;1.75;1.00;;;15.20;1.40;;;17.03;100.00;95210.80;646394;216;31577;-74
2022/05/03 08:19:13;;;;;;;1.50;1.20;;;15.20;1.40;;;17.23;100.00;95210.59;646560;212;42685;-74
2022/05/03 08:21:56;;;;;;;3.20;1.30;;;15.70;1.40;;;17.69;100.00;95206.97;621022;226;32029;-75
2022/05/03 08:24:37;;;;;;;1.35;1.25;;;15.80;1.40;;;17.68;100.00;95207.27;647073;216;31583;-74
2022/05/03 08:27:18;;;;;;;1.20;0.98;;;15.90;1.40;;;17.29;100.00;95210.72;646156;216;31959;-75
2022/05/03 08:31:24;;;;;;;1.50;1.10;;;15.70;1.40;;;17.56;100.00;95214.11;646579;216;31521;-74
2022/05/03 08:35:50;;;;;;;0.90;0.80;;;15.70;1.40;;;17.88;100.00;95216.95;646687;212;31571;-74
2022/05/03 08:44:01;;;;;;;1.60;1.05;;;16.70;1.40;;;18.42;100.00;95213.30;646370;216;31537;-74
2022/05/03 08:46:43;;;;;;;1.60;1.40;;;17.00;1.40;;;18.61;98.80;95213.73;647205;216;31510;-73
2022/05/03 08:49:25;;;;;;;1.40;1.30;;;17.00;1.40;;;18.45;96.75;95217.62;646585;216;32219;-74
2022/05/03 08:52:06;;;;;;;1.60;1.50;;;16.90;1.40;;;18.81;94.56;95218.74;619169;226;32409;-74
2022/05/03 08:54:48;;;;;;;1.90;1.48;;;17.20;1.40;;;18.86;90.67;95212.59;646985;212;31551;-74
2022/05/03 08:57:30;;;;;;;2.58;1.62;;;17.40;1.40;;;18.89;89.96;95212.94;645714;216;32569;-74
2022/05/03 09:00:12;;;;;;;2.20;1.60;;;17.40;1.40;;;19.60;85.73;95217.42;646023;216;31518;-74
2022/05/03 09:02:54;;;;;;;1.85;1.52;;;18.10;1.40;;;19.90;89.86;95207.84;646841;216;31531;-74
2022/05/03 09:05:36;;;;;;;1.70;1.50;;;18.70;1.40;;;20.05;77.62;95201.31;646685;216;31502;-73
2022/05/03 09:08:21;;;;;;;1.92;1.65;;;18.40;1.40;;;20.23;79.47;95205.42;643449;216;31749;-74
2022/05/03 09:11:15;;;;;;;2.10;1.60;;;18.80;1.40;;;21.31;71.49;95193.99;647371;216;31803;-75
2022/05/03 09:13:59;;;;;;;2.47;1.80;;;22.80;1.40;;;22.55;63.77;95195.58;646008;216;31753;-74
2022/05/03 09:16:48;;;;;;;2.58;2.03;;;24.30;1.40;;;24.05;59.41;95200.58;646316;216;31664;-75
2022/05/03 09:19:29;;;;;;;2.72;2.20;;;24.80;1.40;;;24.39;60.25;95197.15;646942;216;31746;-74
2022/05/03 09:25:02;;;;;;;4.30;2.20;;;26.60;1.40;;;26.44;48.39;95197.56;646953;216;31867;-75
2022/05/03 09:27:43;;;;;;;2.30;1.98;;;26.60;1.40;;;25.34;52.71;95195.86;645917;216;42283;-75
2022/05/03 09:30:25;;;;;;;2.17;1.98;;;25.50;1.40;;;27.66;55.56;95193.80;646107;216;31531;-75
2022/05/03 09:35:51;;;;;;;2.78;2.20;;;27.00;1.40;;;29.45;48.90;95191.28;646754;216;31586;-75
2022/05/03 09:38:33;;;;;;;2.53;2.30;;;27.50;1.40;;;27.68;52.94;95191.31;646403;216;31555;-75
2022/05/03 09:41:14;;;;;;;2.62;2.42;;;26.40;1.40;;;29.97;44.14;95183.39;646310;216;31723;-75
2022/05/03 09:44:02;;;;;;;2.55;2.35;;;27.60;1.40;;;30.64;42.18;95176.76;645976;216;32929;-76
2022/05/03 09:46:50;;;;;;;3.10;2.90;;;28.00;1.40;;;30.53;40.83;95177.95;646558;216;31650;-73
2022/05/03 09:49:36;;;;;;;2.55;2.30;;;26.90;1.40;;;30.68;40.73;95179.68;618117;226;32478;-75
2022/05/03 09:52:27;;;;;;;3.00;2.80;;;27.50;1.40;;;31.34;38.94;95177.84;646541;216;31726;-76
2022/05/03 09:55:09;;;;;;;3.10;2.80;;;27.90;1.40;;;32.82;41.25;95178.84;647014;212;42198;-74
2022/05/03 09:57:51;;;;;;;3.03;2.72;;;29.60;1.40;;;32.07;37.61;95171.05;646326;216;31784;-73
2022/05/03 10:00:34;;;;;;;2.72;2.53;;;29.00;1.40;;;30.37;36.52;95177.63;645933;216;31757;-74
2022/05/03 10:03:17;;;;;;;3.00;2.55;;;27.20;1.40;;;30.59;37.61;95178.84;619190;222;32161;-76
2022/05/03 10:05:58;;;;;;;2.20;2.00;;;26.80;1.40;;;32.33;38.20;95170.48;646706;216;31540;-73
2022/05/03 10:08:40;;;;;;;3.15;2.85;;;28.30;1.40;;;31.32;40.26;95168.59;641100;216;31926;-73
2022/05/03 10:11:23;;;;;;;2.78;2.50;;;25.80;1.40;;;30.21;41.05;95172.42;646934;212;32203;-73
2022/05/03 10:14:03;;;;;;;2.40;2.20;;;27.40;1.40;;;30.84;37.10;95172.11;646659;216;32137;-74
2022/05/03 10:22:23;;;;;;;1.80;1.70;;;28.20;1.40;;;32.86;33.92;95164.08;645234;216;31634;-74
2022/05/03 10:25:05;;;;;;;2.20;2.00;;;25.70;1.40;;;26.63;38.73;95175.92;647810;216;31651;-75
2022/05/03 10:27:55;;;;;;;2.85;2.17;;;22.40;1.40;;;25.71;41.78;95175.77;646675;216;42482;-74
2022/05/03 10:30:38;;;;;;;2.75;2.45;;;21.60;1.40;;;24.54;42.88;95170.80;644970;216;32628;-75
2022/05/03 10:35:51;;;;;;;2.78;2.12;;;22.40;1.40;;;25.01;42.78;95168.99;646103;216;31788;-76
2022/05/03 10:38:37;;;;;;;3.40;2.10;;;23.40;1.40;;;27.82;39.56;95158.20;645907;216;31604;-76
2022/05/03 10:41:24;;;;;;;2.83;2.20;;;25.50;1.40;;;31.33;35.59;95151.18;646569;216;42626;-76
2022/05/03 10:44:20;;;;;;;2.50;2.30;;;26.00;1.40;;;29.08;37.83;95151.13;645912;216;31603;-75
2022/05/03 10:47:03;;;;;;;2.65;1.90;;;23.10;1.40;;;26.53;39.49;95154.73;645827;216;31663;-75
2022/05/03 10:50:02;;;;;;;2.42;2.00;;;21.00;1.40;;;25.95;41.50;95156.50;646323;212;31617;-76
2022/05/03 10:52:46;;;;;;;2.40;2.12;;;21.00;1.40;;;25.48;41.69;95155.48;645638;216;32107;-76
2022/05/03 10:55:28;;;;;;;2.40;2.20;;;20.60;1.40;;;25.52;43.28;95151.85;647374;216;31712;-75
2022/05/03 10:58:25;;;;;;;2.25;2.05;;;22.20;1.40;;;28.78;40.54;95142.92;646752;212;31655;-76
2022/05/03 11:01:20;;;;;;;1.90;1.80;;;26.90;1.40;;;31.13;34.49;95134.91;645529;212;31549;-76
2022/05/03 11:04:10;;;;;;;1.50;1.40;;;28.60;1.40;;;31.06;33.63;95133.28;645408;216;31577;-76
2022/05/03 11:06:51;;;;;;;2.30;1.77;;;26.90;1.40;;;28.84;36.51;95138.09;645426;216;31574;-75
2022/05/03 11:09:33;;;;;;;2.30;2.10;;;23.80;1.40;;;27.29;37.46;95137.05;636372;212;31833;-76
2022/05/03 11:12:14;;;;;;;2.33;1.95;;;22.60;1.40;;;26.34;39.01;95134.66;646332;212;42259;-75
2022/05/03 11:14:56;;;;;;;2.25;2.00;;;21.50;1.40;;;28.31;37.49;95131.06;645505;216;31934;-75
2022/05/03 11:17:38;;;;;;;2.50;2.10;;;22.60;1.40;;;29.15;37.73;95127.72;645686;216;31519;-75
2022/05/03 11:20:23;;;;;;;2.10;1.90;;;24.60;1.40;;;27.73;38.14;95127.70;647467;216;31514;-74
2022/05/03 11:23:05;;;;;;;1.98;1.60;;;25.20;1.40;;;33.17;32.83;95116.13;645961;212;31536;-73
2022/05/03 11:25:47;;;;;;;3.67;2.20;;;27.40;1.40;;;33.16;33.07;95110.99;646787;212;32136;-74
2022/05/03 11:28:28;;;;;;;2.03;1.83;;;28.30;1.40;;;32.28;34.61;95108.33;646705;216;31870;-74
2022/05/03 11:31:10;;;;;;;3.20;2.30;;;28.30;1.40;;;34.05;33.00;95107.84;645969;216;31767;-74
2022/05/03 11:35:51;;;;;;;4.60;2.28;;;29.10;1.40;;;32.71;35.69;95099.58;646110;216;31724;-76
2022/05/03 11:40:33;;;;;;;2.80;2.60;;;26.80;1.40;;;31.47;34.78;95100.59;646850;216;32232;-74
2022/05/03 11:45:51;;;;;;;2.50;2.30;;;24.80;1.40;;;31.18;34.97;95097.57;619565;222;32003;-74
2022/05/03 11:48:33;;;;;;;3.17;2.90;;;24.80;1.40;;;31.09;34.45;95093.81;647747;216;31725;-76
2022/05/03 11:57:12;;;;;;;2.28;2.08;;;21.40;1.40;;;25.21;44.92;95100.52;646346;216;31581;-76
2022/05/03 11:59:55;;;;;;;2.03;1.83;;;21.20;1.40;;;27.01;43.45;95092.68;647002;216;31552;-76
2022/05/03 12:02:37;;;;;;;3.80;2.83;;;24.10;1.40;;;27.21;41.95;95092.56;646153;212;42117;-76
2022/05/03 12:05:22;;;;;;;2.40;2.20;;;23.40;1.40;;;25.77;44.30;95094.00;646254;216;31554;-76
2022/05/03 12:08:04;;;;;;;2.25;2.05;;;23.00;1.40;;;27.87;41.58;95090.95;646124;216;31562;-76
2022/05/03 12:10:46;;;;;;;2.55;2.35;;;24.70;1.40;;;31.82;34.85;95080.39;646051;216;32098;-77
2022/05/03 12:13:29;;;;;;;2.28;2.00;;;27.30;1.40;;;33.06;31.83;95078.91;646710;216;31623;-75
2022/05/03 12:16:11;;;;;;;3.05;2.40;;;27.60;1.40;;;33.56;35.18;95077.92;646535;213;31790;-76
2022/05/03 12:18:53;;;;;;;2.60;2.40;;;27.50;1.40;;;36.45;29.11;95072.20;645727;216;31578;-75
2022/05/03 12:21:33;;;;;;;3.90;2.40;;;28.30;1.40;;;33.62;32.78;95079.98;647054;216;32197;-76
2022/05/03 12:24:15;;;;;;;2.20;2.00;;;26.70;1.40;;;36.02;31.31;95070.41;645703;216;31532;-75
2022/05/03 12:26:56;;;;;;;2.70;2.15;;;28.40;1.40;;;32.76;31.17;95082.69;646564;212;31901;-75
2022/05/03 12:29:45;;;;;;;3.33;2.85;;;25.50;1.40;;;24.79;41.40;95091.90;647169;216;31642;-75
2022/05/03 12:32:27;;;;;;;2.83;2.62;;;21.00;1.40;;;26.98;39.42;95085.76;647154;216;31596;-75
2022/05/03 12:35:53;;;;;;;4.10;2.10;;;21.60;1.40;;;26.48;38.97;95084.30;646028;212;31693;-75
2022/05/03 12:38:50;;;;;;;2.20;2.00;;;21.70;1.40;;;25.79;40.06;95087.59;619068;223;32035;-77
2022/05/03 12:41:32;;;;;;;2.30;2.10;;;21.40;1.40;;;25.14;41.24;95085.64;618836;226;31921;-76
2022/05/03 12:44:13;;;;;;;3.42;2.40;;;21.10;1.40;;;25.08;41.68;95084.58;647351;212;32328;-76
2022/05/03 12:47:04;;;;;;;2.62;2.22;;;21.20;1.40;;;25.34;41.18;95081.64;647869;216;31574;-75
2022/05/03 12:49:47;;;;;;;2.60;2.40;;;21.20;1.40;;;25.06;41.37;95082.17;646568;213;31521;-75
2022/05/03 12:52:28;;;;;;;2.92;2.20;;;21.20;1.40;;;24.69;41.85;95083.31;645507;216;31531;-76
2022/05/03 12:55:09;;;;;;;2.50;2.08;;;20.90;1.40;;;25.26;44.88;95076.73;646372;216;42310;-76
2022/05/03 13:00:48;;;;;;;3.00;2.53;;;24.60;1.40;;;28.87;41.09;95062.31;646968;216;31952;-76
2022/05/03 13:03:29;;;;;;;2.70;2.20;;;25.40;1.40;;;33.32;33.74;95051.75;646568;216;31608;-76
2022/05/03 13:06:11;;;;;;;2.58;2.10;;;26.50;1.40;;;33.75;32.78;95047.91;646443;216;31819;-74
2022/05/03 13:08:53;;;;;;;2.35;2.00;;;26.80;1.40;;;33.86;32.07;95046.70;640438;216;31800;-76
2022/05/03 13:11:34;;;;;;;5.35;2.50;;;26.00;1.40;;;33.52;30.85;95046.91;646650;216;31801;-76